GMTA/AHU METAR and TAF weather

Enter ICAO airport designator
Station Type Date Time Source
GMTA METAR 2022/01/29 01:00 UTC NOAA

GMTA 290100Z VRB02KT 9999 FEW040 SCT200 09/07 Q1026 NOSIG


Station Type Date Time Source
GMTA Decoded METAR 2022/01/29 01:00 UTC NOAA

Al Hoceima, Morocco (GMTA) 35-11N 003-51W 14M
Jan 28, 2022 - 08:00 PM EST / 2022.01.29 0100 UTC
Wind: Variable at 2 MPH (2 KT):0
Visibility: greater than 7 mile(s):0
Sky conditions: partly cloudy
Temperature: 48 F (9 C)
Dew Point: 44 F (7 C)
Relative Humidity: 87%
Pressure (altimeter): 30.30 in. Hg (1026 hPa)
ob: GMTA 290100Z VRB02KT 9999 FEW040 SCT200 09/07 Q1026 NOSIG
cycle: 1

Station Type Date Time Source
GMTA TAF 2022/01/28 18:18 UTC NOAA

TAF GMTA 281700Z 2818/2924 06010KT 9999 SCT020 BKN200

Example: see airport list